createdAt,value
2023-02-13T00:00:46.104Z,100344.06
2023-02-13T00:03:14.690Z,100338.03
2023-02-13T00:05:42.596Z,100340.56
2023-02-13T00:08:10.370Z,100333.50
2023-02-13T00:10:38.213Z,100335.13
2023-02-13T00:13:06.215Z,100330.84
2023-02-13T00:15:34.675Z,100328.38
2023-02-13T00:18:03.143Z,100327.69
2023-02-13T00:20:31.232Z,100313.22
2023-02-13T00:23:00.042Z,100314.19
2023-02-13T00:25:28.230Z,100320.34
2023-02-13T00:27:56.035Z,100317.00
2023-02-13T00:30:24.234Z,100329.13
2023-02-13T00:32:52.742Z,100325.78
2023-02-13T00:35:22.117Z,100332.75
2023-02-13T00:37:50.373Z,100344.03
2023-02-13T00:40:18.206Z,100351.91
2023-02-13T00:42:46.030Z,100356.22
2023-02-13T00:45:14.123Z,100351.03
2023-02-13T00:47:42.046Z,100344.13
2023-02-13T00:50:10.466Z,100344.16
2023-02-13T00:52:38.139Z,100339.00
2023-02-13T00:55:06.392Z,100333.03
2023-02-13T00:57:34.563Z,100325.31
2023-02-13T01:00:02.625Z,100331.31
2023-02-13T01:02:30.868Z,100322.72
2023-02-13T01:04:59.044Z,100339.09
2023-02-13T01:07:26.818Z,100335.69
2023-02-13T01:09:54.750Z,100331.41
2023-02-13T01:12:22.629Z,100336.59
2023-02-13T01:14:50.782Z,100347.78
2023-02-13T01:17:19.161Z,100347.78
2023-02-13T01:19:47.315Z,100343.44
2023-02-13T01:22:16.548Z,100349.47
2023-02-13T01:24:44.902Z,100352.09
2023-02-13T01:27:13.110Z,100349.56
2023-02-13T01:29:41.156Z,100349.59
2023-02-13T01:32:09.563Z,100350.47
2023-02-13T01:34:37.668Z,100340.13
2023-02-13T01:37:08.785Z,100350.53
2023-02-13T01:39:36.878Z,100353.13
2023-02-13T01:42:04.893Z,100348.69
2023-02-13T01:44:52.689Z,100355.53
2023-02-13T01:47:44.598Z,100344.28
2023-02-13T01:50:13.387Z,100352.09
2023-02-13T01:52:43.568Z,100347.84
2023-02-13T01:55:11.656Z,100356.44
2023-02-13T01:57:40.304Z,100347.81
2023-02-13T02:00:10.342Z,100346.97
2023-02-13T02:02:53.334Z,100353.84
2023-02-13T02:05:25.575Z,100355.56
2023-02-13T02:07:54.008Z,100354.56
2023-02-13T02:10:24.040Z,100353.59
2023-02-13T02:13:14.986Z,100356.00
2023-02-13T02:15:43.463Z,100354.97
2023-02-13T02:18:29.678Z,100355.72
2023-02-13T02:21:10.014Z,100346.97
2023-02-13T02:24:36.568Z,100343.44
2023-02-13T02:27:25.863Z,100328.75
2023-02-13T02:30:40.985Z,100330.47
2023-02-13T02:33:31.428Z,100330.47
2023-02-13T02:36:19.125Z,100329.50
2023-02-13T02:39:13.096Z,100336.38
2023-02-13T02:41:49.740Z,100336.38
2023-02-13T02:44:43.886Z,100342.41
2023-02-13T02:47:39.481Z,100342.34
2023-02-13T02:50:25.299Z,100341.41
2023-02-13T02:53:16.173Z,100338.69
2023-02-13T02:56:17.385Z,100337.81
2023-02-13T02:59:16.029Z,100333.47
2023-02-13T03:02:02.150Z,100331.59
2023-02-13T03:05:08.757Z,100330.44
2023-02-13T03:07:36.627Z,100319.03
2023-02-13T03:10:28.230Z,100305.94
2023-02-13T03:13:23.864Z,100308.38
2023-02-13T03:16:12.460Z,100299.38
2023-02-13T03:19:00.356Z,100301.78
2023-02-13T03:22:14.507Z,100311.03
2023-02-13T03:25:01.073Z,100305.53
2023-02-13T03:28:06.098Z,100313.09
2023-02-13T03:31:12.611Z,100309.47
2023-02-13T03:33:46.585Z,100315.38
2023-02-13T03:36:38.753Z,100317.50
2023-02-13T03:39:14.562Z,100299.81
2023-02-13T03:42:00.875Z,100307.00
2023-02-13T03:44:46.200Z,100301.28
2023-02-13T03:47:14.517Z,100292.09
2023-02-13T03:50:06.719Z,100286.41
2023-02-13T03:52:46.976Z,100289.50
2023-02-13T03:55:44.655Z,100267.81
2023-02-13T03:58:49.042Z,100281.28
2023-02-13T04:01:18.412Z,100281.94
2023-02-13T04:03:54.607Z,100293.97
2023-02-13T04:06:28.191Z,100296.03
2023-02-13T04:08:56.227Z,100282.91
2023-02-13T04:11:37.187Z,100279.81
2023-02-13T04:14:08.677Z,100271.75
2023-02-13T04:16:38.229Z,100272.47
2023-02-13T04:19:06.863Z,100260.06
2023-02-13T04:21:35.270Z,100251.13
2023-02-13T04:24:03.577Z,100250.06
2023-02-13T04:26:39.748Z,100248.91
2023-02-13T04:29:07.772Z,100259.38
2023-02-13T04:31:36.296Z,100259.78
2023-02-13T04:34:04.250Z,100257.78
2023-02-13T04:36:32.101Z,100254.78
2023-02-13T04:39:00.465Z,100253.81
2023-02-13T04:41:28.397Z,100246.06
2023-02-13T04:43:56.239Z,100262.84
2023-02-13T04:46:24.787Z,100267.13
2023-02-13T04:48:52.998Z,100262.44
2023-02-13T04:51:20.811Z,100258.81
2023-02-13T04:53:48.813Z,100249.25
2023-02-13T04:56:18.041Z,100242.69
2023-02-13T04:58:47.581Z,100240.59
2023-02-13T05:01:16.082Z,100214.88
2023-02-13T05:03:44.160Z,100210.06
2023-02-13T05:06:12.044Z,100213.78
2023-02-13T05:08:40.060Z,100222.69
2023-02-13T05:11:08.481Z,100222.09
2023-02-13T05:13:36.462Z,100227.41
2023-02-13T05:16:04.785Z,100237.88
2023-02-13T05:18:32.969Z,100231.47
2023-02-13T05:21:18.960Z,100218.34
2023-02-13T05:23:46.847Z,100213.25
2023-02-13T05:26:14.760Z,100211.66
2023-02-13T05:29:01.085Z,100209.25
2023-02-13T05:31:29.327Z,100217.19
2023-02-13T05:33:57.597Z,100215.28
2023-02-13T05:36:25.408Z,100216.06
2023-02-13T05:38:53.798Z,100221.06
2023-02-13T05:41:21.570Z,100207.16
2023-02-13T05:43:49.683Z,100205.31
2023-02-13T05:46:18.832Z,100197.97
2023-02-13T05:48:46.580Z,100201.22
2023-02-13T05:51:14.560Z,100202.63
2023-02-13T05:53:42.283Z,100203.75
2023-02-13T05:56:10.636Z,100199.22
2023-02-13T05:58:38.543Z,100196.16
2023-02-13T06:01:06.716Z,100189.59
2023-02-13T06:03:35.274Z,100192.41
2023-02-13T06:06:03.122Z,100190.16
2023-02-13T06:08:31.173Z,100174.53
2023-02-13T06:10:59.695Z,100164.41
2023-02-13T06:13:28.000Z,100167.19
2023-02-13T06:15:56.274Z,100166.34
2023-02-13T06:18:24.660Z,100177.16
2023-02-13T06:20:52.498Z,100164.50
2023-02-13T06:23:20.560Z,100157.84
2023-02-13T06:25:50.152Z,100146.75
2023-02-13T06:28:18.530Z,100146.53
2023-02-13T06:30:47.124Z,100137.06
2023-02-13T06:33:15.508Z,100134.44
2023-02-13T06:35:43.659Z,100132.56
2023-02-13T06:38:11.926Z,100131.38
2023-02-13T06:40:39.972Z,100129.28
2023-02-13T06:43:07.988Z,100122.41
2023-02-13T06:45:36.104Z,100122.78
2023-02-13T06:48:04.254Z,100123.94
2023-02-13T06:50:32.070Z,100127.38
2023-02-13T06:53:00.399Z,100123.97
2023-02-13T06:55:28.842Z,100117.53
2023-02-13T06:57:56.734Z,100106.63
2023-02-13T07:00:27.018Z,100113.34
2023-02-13T07:02:55.259Z,100112.31
2023-02-13T07:05:23.214Z,100113.50
2023-02-13T07:07:50.965Z,100111.25
2023-02-13T07:10:18.929Z,100103.06
2023-02-13T07:12:56.813Z,100101.66
2023-02-13T07:15:32.752Z,100099.03
2023-02-13T07:18:00.762Z,100100.03
2023-02-13T07:20:29.395Z,100102.22
2023-02-13T07:23:04.741Z,100104.19
2023-02-13T07:25:33.093Z,100098.25
2023-02-13T07:28:05.050Z,100092.53
2023-02-13T07:30:33.487Z,100099.84
2023-02-13T07:33:05.155Z,100092.56
2023-02-13T07:35:33.645Z,100100.94
2023-02-13T07:38:02.026Z,100102.34
2023-02-13T07:40:30.132Z,100105.28
2023-02-13T07:43:00.961Z,100103.56
2023-02-13T07:45:29.187Z,100106.09
2023-02-13T07:47:57.194Z,100112.94
2023-02-13T07:50:25.181Z,100107.53
2023-02-13T07:52:59.872Z,100094.13
2023-02-13T07:55:29.297Z,100092.19
2023-02-13T07:57:57.170Z,100093.94
2023-02-13T08:00:25.369Z,100096.97
2023-02-13T08:02:53.509Z,100091.25
2023-02-13T08:05:21.327Z,100105.59
2023-02-13T08:07:49.108Z,100092.81
2023-02-13T08:10:35.142Z,100088.63
2023-02-13T08:13:02.990Z,100091.13
2023-02-13T08:15:30.994Z,100089.19
2023-02-13T08:18:00.051Z,100089.16
2023-02-13T08:20:28.229Z,100090.13
2023-02-13T08:23:10.290Z,100087.66
2023-02-13T08:25:39.084Z,100088.03
2023-02-13T08:28:07.235Z,100087.47
2023-02-13T08:30:35.572Z,100086.19
2023-02-13T08:33:03.615Z,100085.44
2023-02-13T08:35:32.072Z,100081.00
2023-02-13T08:38:04.746Z,100081.66
2023-02-13T08:40:33.006Z,100093.63
2023-02-13T08:43:04.940Z,100082.69
2023-02-13T08:45:33.349Z,100080.63
2023-02-13T08:48:01.460Z,100083.63
2023-02-13T08:50:29.831Z,100100.69
2023-02-13T08:52:59.043Z,100093.94
2023-02-13T08:55:27.950Z,100099.19
2023-02-13T08:57:55.651Z,100103.16
2023-02-13T09:00:23.892Z,100089.63
2023-02-13T09:02:52.048Z,100097.59
2023-02-13T09:05:20.085Z,100104.63
2023-02-13T09:07:48.201Z,100094.72
2023-02-13T09:10:16.037Z,100093.72
2023-02-13T09:12:44.184Z,100091.81
2023-02-13T09:15:12.239Z,100102.00
2023-02-13T09:17:40.190Z,100097.91
2023-02-13T09:20:08.769Z,100102.44
2023-02-13T09:22:36.919Z,100096.06
2023-02-13T09:25:05.667Z,100098.53
2023-02-13T09:27:34.278Z,100092.03
2023-02-13T09:30:02.166Z,100094.50
2023-02-13T09:32:30.307Z,100097.31
2023-02-13T09:34:58.366Z,100097.41
2023-02-13T09:37:27.480Z,100093.66
2023-02-13T09:39:55.181Z,100091.56
2023-02-13T09:42:32.185Z,100088.19
2023-02-13T09:45:01.927Z,100075.00
2023-02-13T09:47:38.120Z,100078.63
2023-02-13T09:50:13.762Z,100070.59
2023-02-13T09:52:42.242Z,100073.75
2023-02-13T09:55:18.326Z,100072.59
2023-02-13T09:57:55.191Z,100075.66
2023-02-13T10:00:40.683Z,100073.22
2023-02-13T10:03:28.823Z,100074.84
2023-02-13T10:06:07.096Z,100093.22
2023-02-13T10:09:05.054Z,100090.59
2023-02-13T10:12:06.982Z,100089.63
2023-02-13T10:14:59.611Z,100097.34
2023-02-13T10:17:32.919Z,100098.75
2023-02-13T10:20:04.345Z,100089.13
2023-02-13T10:22:36.705Z,100091.59
2023-02-13T10:25:13.118Z,100103.69
2023-02-13T10:27:46.298Z,100098.25
2023-02-13T10:30:23.803Z,100113.47
2023-02-13T10:33:21.000Z,100092.63
2023-02-13T10:36:00.970Z,100102.16
2023-02-13T10:38:36.367Z,100103.88
2023-02-13T10:41:22.976Z,100104.59
2023-02-13T10:44:09.166Z,100106.47
2023-02-13T10:47:25.203Z,100112.38
2023-02-13T10:50:14.948Z,100108.72
2023-02-13T10:53:09.267Z,100111.19
2023-02-13T10:55:55.791Z,100118.84
2023-02-13T10:58:30.601Z,100110.72
2023-02-13T11:01:13.756Z,100113.50
2023-02-13T11:03:41.968Z,100118.84
2023-02-13T11:06:12.500Z,100109.31
2023-02-13T11:08:43.856Z,100114.41
2023-02-13T11:11:31.865Z,100118.59
2023-02-13T11:14:10.583Z,100115.19
2023-02-13T11:16:41.273Z,100112.91
2023-02-13T11:19:18.543Z,100116.56
2023-02-13T11:21:47.410Z,100116.75
2023-02-13T11:24:25.899Z,100117.78
2023-02-13T11:26:59.047Z,100105.03
2023-02-13T11:29:32.281Z,100104.50
2023-02-13T11:32:13.297Z,100107.38
2023-02-13T11:34:41.233Z,100109.53
2023-02-13T11:37:24.511Z,100120.69
2023-02-13T11:39:54.349Z,100112.94
2023-02-13T11:42:33.236Z,100109.34
2023-02-13T11:45:03.244Z,100113.44
2023-02-13T11:47:32.445Z,100122.16
2023-02-13T11:50:00.728Z,100117.53
2023-02-13T11:52:35.771Z,100121.56
2023-02-13T11:55:05.955Z,100120.56
2023-02-13T11:57:37.592Z,100123.97
2023-02-13T12:00:42.102Z,100129.31
2023-02-13T12:03:22.678Z,100129.19
2023-02-13T12:06:09.415Z,100121.91
2023-02-13T12:08:38.357Z,100127.19
2023-02-13T12:11:43.131Z,100138.94
2023-02-13T12:14:14.095Z,100141.75
2023-02-13T12:16:50.857Z,100134.16
2023-02-13T12:19:22.682Z,100142.91
2023-02-13T12:21:55.613Z,100134.22
2023-02-13T12:24:30.409Z,100142.31
2023-02-13T12:27:14.109Z,100141.66
2023-02-13T12:30:11.255Z,100144.44
2023-02-13T12:32:50.821Z,100147.03
2023-02-13T12:36:00.108Z,100153.00
2023-02-13T12:38:34.783Z,100157.25
2023-02-13T12:41:32.103Z,100157.44
2023-02-13T12:44:33.994Z,100151.47
2023-02-13T12:47:11.986Z,100143.38
2023-02-13T12:50:04.349Z,100149.53
2023-02-13T12:52:37.632Z,100147.00
2023-02-13T12:55:23.977Z,100149.81
2023-02-13T12:58:17.545Z,100147.44
2023-02-13T13:01:08.983Z,100151.19
2023-02-13T13:04:00.126Z,100145.13
2023-02-13T13:06:57.638Z,100146.47
2023-02-13T13:10:01.889Z,100143.66
2023-02-13T13:12:38.137Z,100147.75
2023-02-13T13:15:41.313Z,100151.09
2023-02-13T13:18:14.046Z,100151.06
2023-02-13T13:20:56.862Z,100151.31
2023-02-13T13:23:43.580Z,100157.66
2023-02-13T13:26:36.530Z,100137.91
2023-02-13T13:29:28.307Z,100151.84
2023-02-13T13:32:07.049Z,100156.69
2023-02-13T13:34:35.722Z,100159.75
2023-02-13T13:37:14.460Z,100155.38
2023-02-13T13:40:04.595Z,100159.88
2023-02-13T13:42:42.775Z,100156.41
2023-02-13T13:45:51.551Z,100155.44
2023-02-13T13:48:33.956Z,100155.50
2023-02-13T13:51:01.759Z,100151.22
2023-02-13T13:53:29.893Z,100161.09
2023-02-13T13:55:58.685Z,100165.75
2023-02-13T13:58:35.412Z,100166.53
2023-02-13T14:01:25.825Z,100163.75
2023-02-13T14:03:58.625Z,100169.94
2023-02-13T14:06:28.210Z,100160.34
2023-02-13T14:08:58.739Z,100158.59
2023-02-13T14:11:32.689Z,100161.09
2023-02-13T14:14:01.224Z,100165.25
2023-02-13T14:16:47.652Z,100155.69
2023-02-13T14:19:34.768Z,100155.16
2023-02-13T14:22:25.130Z,100147.19
2023-02-13T14:24:53.373Z,100150.28
2023-02-13T14:27:25.019Z,100156.78
2023-02-13T14:29:53.175Z,100154.06
2023-02-13T14:32:31.985Z,100151.22
2023-02-13T14:35:26.660Z,100157.84
2023-02-13T14:37:59.628Z,100156.63
2023-02-13T14:40:44.405Z,100163.25
2023-02-13T14:43:21.605Z,100164.25
2023-02-13T14:46:06.109Z,100167.69
2023-02-13T14:48:54.327Z,100173.19
2023-02-13T14:51:35.527Z,100146.84
2023-02-13T14:54:24.070Z,100176.41
2023-02-13T14:56:52.819Z,100171.97
2023-02-13T14:59:25.030Z,100174.41
2023-02-13T15:02:10.299Z,100181.41
2023-02-13T15:04:49.427Z,100171.88
2023-02-13T15:07:23.813Z,100178.97
2023-02-13T15:09:54.162Z,100185.19
2023-02-13T15:12:35.859Z,100176.59
2023-02-13T15:15:24.227Z,100183.63
2023-02-13T15:17:59.118Z,100176.72
2023-02-13T15:20:35.189Z,100182.16
2023-02-13T15:23:03.284Z,100185.09
2023-02-13T15:25:34.977Z,100188.63
2023-02-13T15:28:04.299Z,100186.28
2023-02-13T15:30:37.349Z,100194.22
2023-02-13T15:33:27.191Z,100195.50
2023-02-13T15:36:02.879Z,100201.00
2023-02-13T15:38:36.825Z,100193.41
2023-02-13T15:41:13.643Z,100194.31
2023-02-13T15:43:44.306Z,100191.72
2023-02-13T15:46:26.280Z,100192.50
2023-02-13T15:48:54.898Z,100197.66
2023-02-13T15:51:31.859Z,100194.19
2023-02-13T15:54:01.352Z,100198.56
2023-02-13T15:56:29.548Z,100201.22
2023-02-13T15:58:58.165Z,100209.25
2023-02-13T16:01:26.228Z,100213.03
2023-02-13T16:04:07.659Z,100207.03
2023-02-13T16:06:35.844Z,100206.84
2023-02-13T16:09:04.205Z,100203.34
2023-02-13T16:11:38.804Z,100216.50
2023-02-13T16:14:16.134Z,100209.63
2023-02-13T16:16:47.019Z,100213.03
2023-02-13T16:19:29.313Z,100211.00
2023-02-13T16:21:58.229Z,100208.19
2023-02-13T16:24:26.754Z,100205.31
2023-02-13T16:26:54.976Z,100211.09
2023-02-13T16:29:24.342Z,100216.91
2023-02-13T16:31:52.992Z,100203.69
2023-02-13T16:34:26.788Z,100208.56
2023-02-13T16:36:55.213Z,100214.34
2023-02-13T16:39:33.456Z,100206.22
2023-02-13T16:42:01.534Z,100213.84
2023-02-13T16:44:33.530Z,100219.97
2023-02-13T16:47:02.702Z,100202.50
2023-02-13T16:49:37.220Z,100204.03
2023-02-13T16:52:40.937Z,100211.47
2023-02-13T16:55:15.440Z,100220.53
2023-02-13T16:57:44.998Z,100218.00
2023-02-13T17:00:23.151Z,100206.81
2023-02-13T17:02:52.541Z,100210.19
2023-02-13T17:05:25.975Z,100210.94
2023-02-13T17:07:57.344Z,100211.59
2023-02-13T17:10:36.249Z,100215.84
2023-02-13T17:13:14.241Z,100213.28
2023-02-13T17:15:44.643Z,100210.56
2023-02-13T17:18:12.732Z,100209.59
2023-02-13T17:20:44.518Z,100219.06
2023-02-13T17:23:18.354Z,100223.38
2023-02-13T17:25:49.978Z,100210.38
2023-02-13T17:28:19.452Z,100217.50
2023-02-13T17:30:48.293Z,100209.81
2023-02-13T17:33:20.273Z,100209.28
2023-02-13T17:35:48.276Z,100212.09
2023-02-13T17:38:16.148Z,100207.78
2023-02-13T17:40:44.350Z,100206.03
2023-02-13T17:43:13.148Z,100193.16
2023-02-13T17:45:41.387Z,100195.03
2023-02-13T17:48:09.138Z,100203.97
2023-02-13T17:50:37.257Z,100198.88
2023-02-13T17:53:06.236Z,100196.34
2023-02-13T17:55:34.616Z,100190.97
2023-02-13T17:58:02.574Z,100198.53
2023-02-13T18:00:31.786Z,100198.38
2023-02-13T18:03:00.380Z,100196.28
2023-02-13T18:05:28.961Z,100195.44
2023-02-13T18:07:56.822Z,100192.88
2023-02-13T18:10:28.181Z,100193.03
2023-02-13T18:12:57.815Z,100199.97
2023-02-13T18:15:25.887Z,100195.69
2023-02-13T18:17:53.757Z,100200.75
2023-02-13T18:20:21.813Z,100203.00
2023-02-13T18:22:52.834Z,100200.03
2023-02-13T18:25:21.247Z,100199.78
2023-02-13T18:27:49.230Z,100204.88
2023-02-13T18:30:18.754Z,100197.06
2023-02-13T18:32:47.043Z,100205.56
2023-02-13T18:35:15.243Z,100205.50
2023-02-13T18:37:43.005Z,100196.75
2023-02-13T18:40:11.321Z,100195.00
2023-02-13T18:42:39.499Z,100200.28
2023-02-13T18:45:07.735Z,100201.13
2023-02-13T18:47:35.433Z,100196.75
2023-02-13T18:50:03.557Z,100186.19
2023-02-13T18:52:31.408Z,100192.44
2023-02-13T18:54:59.162Z,100192.63
2023-02-13T18:57:27.256Z,100188.53
2023-02-13T18:59:55.101Z,100203.25
2023-02-13T19:02:23.728Z,100203.28
2023-02-13T19:04:51.512Z,100210.47
2023-02-13T19:15:56.798Z,100214.97
2023-02-13T19:18:25.038Z,100223.97
2023-02-13T19:20:53.010Z,100216.38
2023-02-13T19:23:21.058Z,100218.06
2023-02-13T19:25:48.813Z,100215.31
2023-02-13T19:28:16.582Z,100223.72
2023-02-13T19:30:44.824Z,100220.13
2023-02-13T19:33:12.551Z,100226.00
2023-02-13T19:35:40.953Z,100225.75
2023-02-13T19:38:08.976Z,100225.44
2023-02-13T19:40:37.298Z,100224.00
2023-02-13T19:43:05.436Z,100219.22
2023-02-13T19:45:33.867Z,100221.34
2023-02-13T19:48:02.280Z,100224.88
2023-02-13T19:50:30.689Z,100227.69
2023-02-13T19:52:58.703Z,100220.69
2023-02-13T19:55:27.884Z,100232.59
2023-02-13T19:57:55.732Z,100228.84
2023-02-13T20:00:23.576Z,100230.53
2023-02-13T20:02:51.357Z,100227.78
2023-02-13T20:05:19.807Z,100224.34
2023-02-13T20:07:47.949Z,100225.31
2023-02-13T20:10:15.953Z,100224.59
2023-02-13T20:12:44.045Z,100232.75
2023-02-13T20:15:11.782Z,100230.47
2023-02-13T20:17:39.987Z,100229.91
2023-02-13T20:20:08.607Z,100240.69
2023-02-13T20:22:36.275Z,100226.38
2023-02-13T20:25:04.661Z,100241.47
2023-02-13T20:27:32.750Z,100236.41
2023-02-13T20:30:07.072Z,100226.16
2023-02-13T20:32:36.104Z,100241.00
2023-02-13T20:35:04.473Z,100235.09
2023-02-13T20:37:32.764Z,100236.97
2023-02-13T20:40:01.207Z,100240.69
2023-02-13T20:42:28.922Z,100234.75
2023-02-13T20:44:57.187Z,100229.69
2023-02-13T20:47:25.058Z,100228.94
2023-02-13T20:49:52.942Z,100219.47
2023-02-13T20:52:21.206Z,100228.16
2023-02-13T20:54:49.048Z,100234.25
2023-02-13T20:57:17.069Z,100230.91
2023-02-13T20:59:48.017Z,100234.09
2023-02-13T21:02:16.786Z,100234.78
2023-02-13T21:04:44.506Z,100234.00
2023-02-13T21:07:12.895Z,100233.13
2023-02-13T21:09:40.784Z,100229.69
2023-02-13T21:12:08.616Z,100230.53
2023-02-13T21:14:36.464Z,100227.97
2023-02-13T21:17:04.233Z,100228.13
2023-02-13T21:19:32.513Z,100234.16
2023-02-13T21:22:12.564Z,100231.53
2023-02-13T21:24:41.192Z,100233.28
2023-02-13T21:27:09.412Z,100226.44
2023-02-13T21:29:38.382Z,100226.44
2023-02-13T21:32:06.966Z,100226.44
2023-02-13T21:34:35.064Z,100228.13
2023-02-13T21:37:02.833Z,100228.09
2023-02-13T21:39:30.930Z,100219.47
2023-02-13T21:41:59.046Z,100226.44
2023-02-13T21:44:27.033Z,100223.03
2023-02-13T21:46:54.904Z,100225.53
2023-02-13T21:49:22.633Z,100225.59
2023-02-13T21:51:50.652Z,100219.47
2023-02-13T21:54:18.609Z,100222.94
2023-02-13T21:56:46.720Z,100228.09
2023-02-13T21:59:17.913Z,100228.13
2023-02-13T22:01:47.485Z,100229.91
2023-02-13T22:04:15.874Z,100231.59
2023-02-13T22:06:44.347Z,100221.91
2023-02-13T22:09:13.915Z,100231.34
2023-02-13T22:11:42.071Z,100230.31
2023-02-13T22:14:12.958Z,100221.44
2023-02-13T22:16:42.852Z,100224.78
2023-02-13T22:19:15.507Z,100225.53
2023-02-13T22:21:43.431Z,100217.59
2023-02-13T22:24:11.964Z,100220.19
2023-02-13T22:26:40.778Z,100220.81
2023-02-13T22:29:10.157Z,100227.50
2023-02-13T22:31:38.384Z,100223.84
2023-02-13T22:34:06.569Z,100235.69
2023-02-13T22:36:36.059Z,100231.09
2023-02-13T22:39:03.676Z,100232.56
2023-02-13T22:41:31.620Z,100224.63
2023-02-13T22:43:59.556Z,100228.75
2023-02-13T22:46:30.397Z,100225.13
2023-02-13T22:48:58.972Z,100232.97
2023-02-13T22:51:32.243Z,100240.53
2023-02-13T22:54:00.615Z,100234.41
2023-02-13T22:56:28.916Z,100230.94
2023-02-13T22:58:56.909Z,100239.75
2023-02-13T23:01:26.105Z,100242.59
2023-02-13T23:03:54.529Z,100247.25
2023-02-13T23:06:22.969Z,100243.19
2023-02-13T23:08:52.943Z,100242.59
2023-02-13T23:11:41.521Z,100242.59
2023-02-13T23:14:10.768Z,100246.31
2023-02-13T23:17:00.422Z,100242.94
2023-02-13T23:19:30.175Z,100249.25
2023-02-13T23:21:58.455Z,100250.31
2023-02-13T23:24:26.915Z,100255.47
2023-02-13T23:26:55.045Z,100250.22
2023-02-13T23:29:23.165Z,100252.75
2023-02-13T23:31:51.360Z,100254.53
2023-02-13T23:34:19.635Z,100258.84
2023-02-13T23:36:47.578Z,100264.97
2023-02-13T23:39:15.348Z,100259.91
2023-02-13T23:41:43.379Z,100257.34
2023-02-13T23:44:11.226Z,100260.75
2023-02-13T23:46:39.457Z,100261.69
2023-02-13T23:49:07.659Z,100265.00
2023-02-13T23:51:35.600Z,100270.97
2023-02-13T23:54:04.312Z,100263.13
2023-02-13T23:56:32.116Z,100262.97
2023-02-13T23:59:00.239Z,100259.41
